Time;durP1;ratioP1;P1;durP2;ratioP2;P2;SDS_P1;SDS_P2;PMS_P1;PMS_P2;Temp;Humidity;BMP_temperature;BMP_pressure;BME280_temperature;BME280_humidity;BME280_pressure;Samples;Min_cycle;Max_cycle;Signal;HPM_P1;HPM_P2
2023/06/14 00:00:14;;;;;;;5.82;3.47;;;12.50;99.90;;;;;;5076045;28;20178;-90
2023/06/14 00:02:41;;;;;;;8.52;3.45;;;12.50;99.90;;;;;;5078939;28;20709;-90
2023/06/14 00:05:07;;;;;;;6.43;3.67;;;12.50;99.90;;;;;;5060295;28;20179;-86
2023/06/14 00:07:42;;;;;;;10.82;3.97;;;12.60;99.90;;;;;;5075362;28;20171;-90
2023/06/14 00:10:09;;;;;;;11.35;3.25;;;12.60;99.90;;;;;;5061001;28;20590;-88
2023/06/14 00:12:35;;;;;;;5.13;2.63;;;12.60;99.90;;;;;;5079280;28;20250;-90
2023/06/14 00:15:01;;;;;;;8.57;3.85;;;12.60;99.90;;;;;;5075498;28;20179;-91
2023/06/14 00:17:30;;;;;;;6.72;3.90;;;12.60;99.90;;;;;;5041165;28;20187;-92
2023/06/14 00:19:56;;;;;;;7.22;3.60;;;12.60;99.90;;;;;;5075881;28;20178;-90
2023/06/14 00:22:24;;;;;;;6.75;3.60;;;12.50;99.90;;;;;;5057252;28;20215;-91
2023/06/14 00:24:53;;;;;;;6.00;3.13;;;12.50;99.90;;;;;;5075735;28;20178;-91
2023/06/14 00:27:18;;;;;;;4.75;3.00;;;12.60;99.90;;;;;;5056981;28;20183;-92
2023/06/14 00:29:44;;;;;;;7.45;3.55;;;12.60;99.90;;;;;;5075729;28;20720;-92
2023/06/14 00:32:10;;;;;;;5.75;3.75;;;12.60;99.90;;;;;;5075014;28;20183;-86
2023/06/14 00:34:35;;;;;;;4.90;3.63;;;12.60;99.90;;;;;;5075328;28;20182;-92
2023/06/14 00:37:01;;;;;;;6.85;3.30;;;12.60;99.90;;;;;;5057344;28;20187;-92
2023/06/14 00:39:27;;;;;;;7.82;4.35;;;12.60;99.90;;;;;;5057041;28;20185;-92
2023/06/14 00:41:52;;;;;;;7.25;3.33;;;12.60;99.90;;;;;;5057135;28;20180;-91
2023/06/14 00:44:18;;;;;;;5.25;3.13;;;12.60;99.90;;;;;;5078424;28;20527;-90
2023/06/14 00:46:47;;;;;;;5.55;2.97;;;12.60;99.90;;;;;;5075083;28;20175;-91
2023/06/14 00:49:15;;;;;;;3.92;2.83;;;12.60;99.90;;;;;;5056896;28;20207;-89
2023/06/14 00:51:41;;;;;;;7.60;3.58;;;12.60;99.90;;;;;;5074695;28;20225;-90
2023/06/14 00:54:07;;;;;;;9.75;3.45;;;12.60;99.90;;;;;;5074728;28;20723;-90
2023/06/14 00:56:33;;;;;;;5.40;3.33;;;12.50;99.90;;;;;;5058353;28;20262;-91
2023/06/14 00:58:59;;;;;;;3.58;2.85;;;12.60;99.90;;;;;;5077964;28;20179;-90
2023/06/14 01:01:25;;;;;;;5.15;2.95;;;12.50;99.90;;;;;;5058332;28;20182;-91
2023/06/14 01:03:53;;;;;;;6.32;3.30;;;12.50;99.90;;;;;;5074632;28;20180;-91
2023/06/14 01:06:32;;;;;;;5.63;3.28;;;12.50;99.90;;;;;;5055684;28;20175;-90
2023/06/14 01:09:23;;;;;;;7.18;2.95;;;12.50;99.90;;;;;;5074251;28;20745;-91
2023/06/14 01:12:00;;;;;;;5.35;3.22;;;12.60;99.90;;;;;;5056591;28;20183;-90
2023/06/14 01:14:28;;;;;;;4.47;3.28;;;12.50;99.90;;;;;;5074025;28;20658;-90
2023/06/14 01:16:55;;;;;;;13.05;3.15;;;12.60;99.90;;;;;;5074084;28;20178;-90
2023/06/14 01:19:25;;;;;;;5.97;3.20;;;12.50;99.90;;;;;;5074046;28;20194;-90
2023/06/14 01:21:51;;;;;;;4.63;3.03;;;12.60;99.90;;;;;;5074287;28;20171;-90
2023/06/14 01:24:19;;;;;;;8.68;3.80;;;12.60;99.90;;;;;;5056145;28;20313;-89
2023/06/14 01:26:46;;;;;;;9.52;3.40;;;12.60;99.90;;;;;;5056292;28;20175;-90
2023/06/14 01:29:16;;;;;;;6.72;3.63;;;12.50;99.90;;;;;;5073991;28;20578;-90
2023/06/14 01:31:42;;;;;;;4.20;3.00;;;12.60;99.90;;;;;;5056686;28;20221;-90
2023/06/14 01:34:08;;;;;;;6.13;3.00;;;12.60;99.90;;;;;;5056338;28;20186;-91
2023/06/14 01:36:36;;;;;;;4.88;3.10;;;12.60;99.90;;;;;;5073931;28;20537;-92
2023/06/14 01:39:03;;;;;;;4.28;3.00;;;12.60;99.90;;;;;;5074239;28;20175;-91
2023/06/14 01:41:30;;;;;;;5.68;3.47;;;12.50;99.90;;;;;;5058266;28;20174;-92
2023/06/14 01:43:57;;;;;;;4.72;3.15;;;12.60;99.90;;;;;;5073811;28;20258;-91
2023/06/14 01:46:23;;;;;;;5.95;3.47;;;12.60;99.90;;;;;;5073625;28;20717;-91
2023/06/14 01:48:49;;;;;;;12.50;3.95;;;12.60;99.90;;;;;;5073707;28;20269;-92
2023/06/14 01:51:15;;;;;;;3.97;3.20;;;12.60;99.90;;;;;;5057643;28;20239;-92
2023/06/14 01:53:41;;;;;;;5.20;3.38;;;12.60;99.90;;;;;;5058355;28;20183;-92
2023/06/14 01:56:07;;;;;;;5.35;3.70;;;12.60;99.90;;;;;;5074594;28;20217;-90
2023/06/14 01:58:33;;;;;;;5.82;3.45;;;12.60;99.90;;;;;;5073528;28;20661;-90
2023/06/14 02:01:00;;;;;;;6.07;3.30;;;12.50;99.90;;;;;;5073745;28;20639;-90
2023/06/14 02:03:26;;;;;;;14.52;3.60;;;12.60;99.90;;;;;;5055771;28;20176;-90
2023/06/14 02:05:52;;;;;;;6.75;3.55;;;12.50;99.90;;;;;;5073927;28;20179;-91
2023/06/14 02:08:17;;;;;;;12.48;3.58;;;12.50;99.90;;;;;;5074389;28;20206;-89
2023/06/14 02:10:43;;;;;;;4.47;3.70;;;12.50;99.90;;;;;;5082971;28;20207;-91
2023/06/14 02:13:09;;;;;;;4.90;3.08;;;12.50;99.90;;;;;;5047820;28;20182;-90
2023/06/14 02:15:35;;;;;;;4.18;3.10;;;12.50;99.90;;;;;;5079033;28;20656;-89
2023/06/14 02:18:02;;;;;;;5.38;3.10;;;12.50;99.90;;;;;;5056744;28;20615;-90
2023/06/14 02:20:28;;;;;;;4.40;3.13;;;12.50;99.90;;;;;;5073256;28;20214;-90
2023/06/14 02:22:54;;;;;;;5.65;3.65;;;12.50;99.90;;;;;;5039232;28;20597;-89
2023/06/14 02:25:19;;;;;;;6.50;4.22;;;12.50;99.90;;;;;;5073564;28;20258;-89
2023/06/14 02:27:45;;;;;;;6.53;3.38;;;12.50;99.90;;;;;;5073037;28;20198;-90
2023/06/14 02:30:12;;;;;;;5.63;3.80;;;12.50;99.90;;;;;;5073094;28;20231;-88
2023/06/14 02:32:38;;;;;;;4.43;3.58;;;12.50;99.90;;;;;;5073062;28;20175;-89
2023/06/14 02:35:04;;;;;;;5.85;3.88;;;12.40;99.90;;;;;;5055407;28;20183;-89
2023/06/14 02:37:30;;;;;;;10.55;4.40;;;12.50;99.90;;;;;;5055182;28;20520;-89
2023/06/14 02:39:56;;;;;;;7.13;4.05;;;12.40;99.90;;;;;;5073209;28;20189;-90
2023/06/14 02:42:21;;;;;;;8.02;4.70;;;12.40;99.90;;;;;;5073351;28;20536;-90
2023/06/14 02:44:50;;;;;;;6.20;3.55;;;12.40;99.90;;;;;;5054894;28;20179;-89
2023/06/14 02:47:19;;;;;;;7.20;4.25;;;12.50;99.90;;;;;;5055839;28;20213;-90
2023/06/14 02:49:48;;;;;;;9.35;4.70;;;12.40;99.90;;;;;;5072821;28;20246;-88
2023/06/14 02:52:14;;;;;;;8.43;3.97;;;12.40;99.90;;;;;;5055669;28;20172;-89
2023/06/14 02:54:40;;;;;;;5.65;4.00;;;12.40;99.90;;;;;;5072570;28;20180;-89
2023/06/14 02:57:07;;;;;;;10.88;4.30;;;12.40;99.90;;;;;;5055212;28;20172;-89
2023/06/14 02:59:33;;;;;;;7.93;4.38;;;12.40;99.90;;;;;;5072698;28;20274;-89
2023/06/14 03:01:59;;;;;;;11.77;5.63;;;12.40;99.90;;;;;;5038844;28;20182;-89
2023/06/14 03:04:28;;;;;;;7.03;4.35;;;12.40;99.90;;;;;;5055931;28;20175;-89
2023/06/14 03:06:54;;;;;;;7.43;4.30;;;12.40;99.90;;;;;;5040238;28;20176;-89
2023/06/14 03:09:20;;;;;;;10.18;4.28;;;12.40;99.90;;;;;;5055106;28;20221;-89
2023/06/14 03:11:46;;;;;;;5.68;4.50;;;12.30;99.90;;;;;;5055050;28;20274;-89
2023/06/14 03:14:13;;;;;;;6.22;4.20;;;12.40;99.90;;;;;;5055168;28;20266;-88
2023/06/14 03:16:40;;;;;;;7.68;4.63;;;12.40;99.90;;;;;;5072882;28;20175;-89
2023/06/14 03:19:05;;;;;;;6.72;4.13;;;12.40;99.90;;;;;;5073430;28;20183;-89
2023/06/14 03:21:32;;;;;;;7.50;4.57;;;12.50;99.90;;;;;;5069198;28;20328;-87
2023/06/14 03:23:57;;;;;;;6.05;4.28;;;12.40;99.90;;;;;;5053173;28;20290;-90
2023/06/14 03:26:23;;;;;;;8.52;4.90;;;12.50;99.90;;;;;;5060787;28;20183;-86
2023/06/14 03:28:50;;;;;;;7.07;4.55;;;12.50;99.90;;;;;;5091108;28;20251;-86
2023/06/14 03:31:16;;;;;;;8.52;4.45;;;12.60;99.90;;;;;;5095302;28;20211;-86
2023/06/14 03:33:42;;;;;;;7.78;4.32;;;12.70;99.90;;;;;;5070930;28;20244;-90
2023/06/14 03:36:08;;;;;;;6.90;4.85;;;12.70;99.90;;;;;;5074734;28;20190;-89
2023/06/14 03:38:34;;;;;;;7.47;5.00;;;12.80;99.90;;;;;;5039692;28;20666;-89
2023/06/14 03:41:00;;;;;;;8.88;5.10;;;12.80;99.90;;;;;;5056329;28;20200;-88
2023/06/14 03:43:26;;;;;;;9.30;5.38;;;12.90;99.90;;;;;;5074135;28;20191;-88
2023/06/14 03:45:51;;;;;;;8.13;4.65;;;12.90;99.90;;;;;;5055734;28;20183;-88
2023/06/14 03:48:17;;;;;;;8.60;4.57;;;12.90;99.90;;;;;;5058696;28;20269;-92
2023/06/14 03:50:44;;;;;;;8.68;4.60;;;13.00;99.90;;;;;;5077529;28;20652;-91
2023/06/14 03:53:10;;;;;;;9.25;4.43;;;13.00;99.90;;;;;;5077112;28;20191;-92
2023/06/14 03:55:35;;;;;;;8.23;4.20;;;13.00;99.90;;;;;;5070185;28;20262;-90
2023/06/14 03:58:01;;;;;;;12.63;5.03;;;13.10;99.90;;;;;;5073944;28;20573;-91
2023/06/14 04:00:27;;;;;;;9.30;4.78;;;13.20;99.90;;;;;;5041676;28;20188;-91
2023/06/14 04:02:53;;;;;;;7.22;4.20;;;13.30;99.90;;;;;;5039646;28;20190;-90
2023/06/14 04:05:19;;;;;;;12.38;4.78;;;13.30;99.90;;;;;;5056616;28;20183;-91
2023/06/14 04:07:45;;;;;;;9.38;4.60;;;13.30;99.90;;;;;;5073544;28;20681;-91
2023/06/14 04:10:17;;;;;;;6.72;4.38;;;13.40;99.90;;;;;;5073227;28;20179;-91
2023/06/14 04:12:42;;;;;;;8.65;4.22;;;13.40;99.90;;;;;;5054567;28;20183;-91
2023/06/14 04:15:09;;;;;;;11.65;4.63;;;13.40;99.90;;;;;;5055505;28;20191;-92
2023/06/14 04:17:37;;;;;;;8.65;4.80;;;13.40;99.90;;;;;;5054937;28;20225;-86
2023/06/14 04:20:05;;;;;;;9.20;4.72;;;13.50;99.90;;;;;;5073132;28;20218;-90
2023/06/14 04:22:31;;;;;;;8.18;4.65;;;13.60;99.90;;;;;;5072189;28;20266;-89
2023/06/14 04:24:57;;;;;;;5.22;3.72;;;13.70;99.90;;;;;;5072359;28;20283;-91
2023/06/14 04:27:30;;;;;;;6.82;4.05;;;13.70;99.90;;;;;;5054547;28;20183;-87
2023/06/14 04:29:57;;;;;;;5.97;3.95;;;13.90;99.90;;;;;;5072149;28;20250;-90
2023/06/14 04:32:26;;;;;;;7.45;4.10;;;13.90;99.90;;;;;;5059584;28;20198;-90
2023/06/14 04:34:59;;;;;;;5.32;3.47;;;14.00;99.90;;;;;;5072444;28;20218;-89
2023/06/14 04:37:28;;;;;;;9.38;4.22;;;14.10;99.90;;;;;;5054288;28;20190;-92
2023/06/14 04:39:55;;;;;;;11.15;4.15;;;14.10;99.90;;;;;;5069193;28;20194;-89
2023/06/14 04:42:24;;;;;;;5.82;4.05;;;14.20;99.90;;;;;;5070668;28;20184;-90
2023/06/14 04:44:51;;;;;;;5.72;3.70;;;14.20;99.90;;;;;;5054734;28;20190;-90
2023/06/14 04:47:17;;;;;;;9.35;4.15;;;14.20;99.90;;;;;;5054981;28;20690;-90
2023/06/14 04:49:43;;;;;;;5.25;3.67;;;14.20;99.90;;;;;;5054730;28;20219;-90
2023/06/14 04:52:10;;;;;;;5.15;3.67;;;14.20;99.90;;;;;;5072665;28;20187;-89
2023/06/14 04:54:38;;;;;;;9.10;3.88;;;14.20;99.90;;;;;;5054839;28;20916;-89
2023/06/14 04:57:05;;;;;;;5.93;4.63;;;14.20;99.90;;;;;;5073326;28;20186;-89
2023/06/14 04:59:33;;;;;;;6.70;3.67;;;14.20;99.90;;;;;;5039313;28;20691;-89
2023/06/14 05:01:59;;;;;;;4.50;3.67;;;14.20;99.90;;;;;;5074342;28;20520;-89
2023/06/14 05:04:26;;;;;;;6.22;3.70;;;14.20;99.90;;;;;;5069518;28;20269;-89
2023/06/14 05:06:54;;;;;;;6.90;4.03;;;14.20;99.90;;;;;;5096151;28;20174;-88
2023/06/14 05:09:20;;;;;;;6.93;3.72;;;14.30;99.90;;;;;;5080847;28;20222;-88
2023/06/14 05:11:47;;;;;;;10.77;4.20;;;14.40;99.90;;;;;;5096131;28;20212;-88
2023/06/14 05:14:13;;;;;;;7.38;3.80;;;14.40;99.90;;;;;;5096685;28;20241;-87
2023/06/14 05:16:40;;;;;;;5.43;3.25;;;14.40;99.90;;;;;;5095468;28;20175;-90
2023/06/14 05:19:06;;;;;;;4.60;3.50;;;14.50;99.90;;;;;;5097824;28;20699;-89
2023/06/14 05:21:34;;;;;;;9.43;3.45;;;14.50;99.90;;;;;;5094025;28;20202;-90
2023/06/14 05:24:00;;;;;;;4.15;3.25;;;14.60;99.90;;;;;;5094590;28;20594;-90
2023/06/14 05:26:28;;;;;;;6.13;4.10;;;14.60;99.90;;;;;;5093679;28;20658;-90
2023/06/14 05:28:57;;;;;;;8.00;3.50;;;14.60;99.90;;;;;;5075970;28;20230;-89
2023/06/14 05:31:25;;;;;;;4.72;3.33;;;14.70;99.90;;;;;;5083623;28;20178;-88
2023/06/14 05:33:51;;;;;;;5.65;3.40;;;14.60;99.90;;;;;;5063071;28;20266;-89
2023/06/14 05:36:17;;;;;;;5.93;3.40;;;14.60;99.90;;;;;;5076136;28;20579;-89
2023/06/14 05:38:43;;;;;;;5.22;3.08;;;14.60;99.90;;;;;;5072926;28;20694;-89
2023/06/14 05:41:09;;;;;;;5.38;3.38;;;14.60;99.90;;;;;;5055200;28;20183;-90
2023/06/14 05:43:34;;;;;;;3.08;2.75;;;14.70;99.90;;;;;;5072762;28;20190;-88
2023/06/14 05:46:00;;;;;;;7.13;3.95;;;14.70;99.90;;;;;;5073073;28;20217;-89
2023/06/14 05:48:26;;;;;;;4.78;3.20;;;14.70;99.90;;;;;;5072507;28;20643;-90
2023/06/14 05:50:51;;;;;;;5.32;3.45;;;14.80;99.90;;;;;;5072116;28;20718;-87
2023/06/14 05:53:17;;;;;;;7.10;3.58;;;14.80;99.90;;;;;;5055009;28;20229;-88
2023/06/14 05:55:43;;;;;;;5.55;3.47;;;14.90;99.90;;;;;;5077435;28;20210;-90
2023/06/14 05:58:08;;;;;;;6.13;2.92;;;14.80;99.90;;;;;;5063721;28;20194;-90
2023/06/14 06:00:35;;;;;;;5.38;3.35;;;;;;;;;;5048613;28;20187;-89
2023/06/14 06:03:00;;;;;;;8.55;3.65;;;14.90;99.90;;;;;;5072817;28;20174;-90
2023/06/14 06:05:26;;;;;;;5.68;3.63;;;14.90;99.90;;;;;;5064531;28;20181;-89
2023/06/14 06:07:52;;;;;;;5.75;3.20;;;14.90;99.90;;;;;;5080611;28;20181;-87
2023/06/14 06:10:18;;;;;;;5.80;3.25;;;14.90;99.90;;;;;;5065113;28;20182;-91
2023/06/14 06:12:45;;;;;;;9.73;3.75;;;14.90;99.90;;;;;;5082523;28;20695;-88
2023/06/14 06:15:14;;;;;;;8.00;3.60;;;14.90;99.90;;;;;;5089612;28;20233;-90
2023/06/14 06:17:40;;;;;;;5.15;2.97;;;15.00;99.90;;;;;;5083529;28;20175;-90
2023/06/14 06:20:08;;;;;;;6.30;3.42;;;15.00;99.90;;;;;;5066831;28;20214;-89
2023/06/14 06:22:34;;;;;;;5.30;3.15;;;15.10;99.90;;;;;;5066424;28;20174;-89
2023/06/14 06:24:59;;;;;;;6.35;3.40;;;15.10;99.90;;;;;;5085450;28;20178;-90
2023/06/14 06:27:25;;;;;;;6.65;3.83;;;15.10;99.90;;;;;;5078158;28;20178;-91
2023/06/14 06:29:51;;;;;;;7.18;3.35;;;15.20;99.90;;;;;;5095452;28;20624;-90
2023/06/14 06:32:17;;;;;;;6.28;3.83;;;15.20;99.90;;;;;;5060567;28;20712;-89
2023/06/14 06:34:43;;;;;;;4.57;3.63;;;15.20;99.90;;;;;;5096437;28;20624;-89
2023/06/14 06:37:09;;;;;;;6.63;3.65;;;15.20;99.90;;;;;;5096789;28;20281;-89
2023/06/14 06:39:35;;;;;;;5.18;3.30;;;15.20;99.90;;;;;;5097278;28;20639;-90
2023/06/14 06:42:00;;;;;;;6.50;3.22;;;15.20;99.90;;;;;;5098773;28;20195;-89
2023/06/14 06:44:26;;;;;;;6.28;3.67;;;15.20;99.90;;;;;;5076575;28;20630;-88
2023/06/14 06:46:52;;;;;;;3.45;3.00;;;15.30;99.90;;;;;;5094674;28;20174;-88
2023/06/14 06:49:17;;;;;;;4.88;2.80;;;15.30;99.90;;;;;;5094748;28;20232;-88
2023/06/14 06:51:44;;;;;;;5.65;3.38;;;15.30;99.90;;;;;;5094835;28;20533;-90
2023/06/14 06:54:10;;;;;;;4.00;3.35;;;15.40;99.90;;;;;;5076947;28;20178;-89
2023/06/14 06:56:36;;;;;;;8.40;3.60;;;15.40;99.90;;;;;;5098793;28;20175;-89
2023/06/14 06:59:02;;;;;;;3.50;3.20;;;15.30;99.90;;;;;;5096196;28;20217;-89
2023/06/14 07:01:28;;;;;;;4.93;3.13;;;15.40;99.90;;;;;;5077702;28;20179;-89
2023/06/14 07:03:57;;;;;;;4.68;3.53;;;15.50;99.90;;;;;;5096312;28;20646;-88
2023/06/14 07:06:27;;;;;;;6.43;3.90;;;15.50;99.90;;;;;;5099062;28;20261;-88
2023/06/14 07:08:52;;;;;;;4.78;3.20;;;15.50;99.90;;;;;;5100329;28;20222;-87
2023/06/14 07:11:18;;;;;;;4.10;3.33;;;15.50;99.90;;;;;;5099895;28;20202;-89
2023/06/14 07:13:43;;;;;;;4.30;3.13;;;15.60;99.90;;;;;;5082965;28;20592;-86
2023/06/14 07:16:09;;;;;;;6.75;3.95;;;15.60;99.90;;;;;;5097995;28;20179;-89
2023/06/14 07:18:35;;;;;;;5.18;3.80;;;15.60;99.90;;;;;;5097708;28;20187;-89
2023/06/14 07:21:01;;;;;;;4.10;3.13;;;15.70;99.90;;;;;;5096760;28;20528;-88
2023/06/14 07:23:27;;;;;;;5.05;3.30;;;15.70;99.90;;;;;;5079326;28;20563;-89
2023/06/14 07:25:52;;;;;;;4.45;3.05;;;15.70;99.90;;;;;;5097555;28;20193;-88
2023/06/14 07:28:18;;;;;;;5.20;3.33;;;15.80;99.90;;;;;;5096752;28;20670;-89
2023/06/14 07:30:44;;;;;;;4.72;2.90;;;15.80;99.90;;;;;;5078581;28;20179;-88
2023/06/14 07:33:11;;;;;;;9.25;3.47;;;15.80;99.90;;;;;;5078200;28;20170;-89
2023/06/14 07:35:37;;;;;;;4.55;3.10;;;15.90;99.90;;;;;;5078389;28;20536;-89
2023/06/14 07:38:02;;;;;;;5.53;3.15;;;16.00;99.90;;;;;;5096076;28;20262;-88
2023/06/14 07:40:28;;;;;;;4.25;3.10;;;16.20;99.90;;;;;;5096638;28;20174;-89
2023/06/14 07:42:54;;;;;;;4.78;3.03;;;16.20;99.90;;;;;;5078098;28;20218;-88
2023/06/14 07:45:20;;;;;;;4.88;3.65;;;16.30;99.90;;;;;;5061948;28;20170;-89
2023/06/14 07:47:46;;;;;;;5.75;3.67;;;16.50;99.90;;;;;;5096442;28;20239;-89
2023/06/14 07:50:13;;;;;;;6.25;3.42;;;16.60;99.90;;;;;;5096352;28;20178;-88
2023/06/14 07:52:39;;;;;;;5.57;3.28;;;16.60;99.90;;;;;;5096827;28;20171;-88
2023/06/14 07:55:05;;;;;;;6.40;3.45;;;16.80;99.90;;;;;;5096608;28;20185;-88
2023/06/14 07:57:31;;;;;;;7.53;4.00;;;17.00;99.90;;;;;;5078311;28;20261;-88
2023/06/14 07:59:56;;;;;;;8.20;3.30;;;17.10;99.90;;;;;;5077607;28;20328;-89
2023/06/14 08:02:22;;;;;;;5.05;3.10;;;17.30;99.90;;;;;;5077688;28;20185;-88
2023/06/14 08:04:48;;;;;;;4.57;3.08;;;17.60;99.90;;;;;;5079630;28;20648;-89
2023/06/14 08:07:14;;;;;;;9.40;3.53;;;17.90;99.90;;;;;;5061260;28;20693;-87
2023/06/14 08:09:40;;;;;;;9.70;3.40;;;18.20;99.90;;;;;;5077998;28;20219;-88
2023/06/14 08:12:09;;;;;;;3.67;2.95;;;18.40;99.90;;;;;;5057419;28;20553;-87
2023/06/14 08:14:35;;;;;;;7.78;3.63;;;18.60;99.90;;;;;;5058041;28;20171;-87
2023/06/14 08:17:01;;;;;;;5.97;3.53;;;18.70;99.90;;;;;;5077791;28;20189;-87
2023/06/14 08:19:27;;;;;;;3.20;2.50;;;18.60;99.90;;;;;;5075435;28;20183;-87
2023/06/14 08:21:55;;;;;;;4.20;3.10;;;18.70;99.90;;;;;;5060840;28;20178;-87
2023/06/14 08:24:24;;;;;;;3.67;3.15;;;18.80;99.90;;;;;;5077314;28;20224;-86
2023/06/14 08:26:50;;;;;;;5.00;2.90;;;18.80;99.90;;;;;;5094427;28;20228;-85
2023/06/14 08:29:15;;;;;;;3.15;2.83;;;18.70;99.90;;;;;;5076930;28;20242;-87
2023/06/14 08:31:41;;;;;;;4.60;2.70;;;18.80;99.90;;;;;;5076863;28;20179;-86
2023/06/14 08:34:07;;;;;;;2.97;2.30;;;18.90;99.90;;;;;;5076794;28;20191;-87
2023/06/14 08:36:33;;;;;;;4.80;2.30;;;18.80;99.90;;;;;;5059977;28;20244;-86
2023/06/14 08:38:59;;;;;;;3.80;2.47;;;18.80;99.90;;;;;;5077000;28;20635;-86
2023/06/14 08:41:27;;;;;;;3.75;2.50;;;18.80;99.90;;;;;;5094224;28;20181;-87
2023/06/14 08:43:52;;;;;;;3.42;2.60;;;18.80;99.90;;;;;;5094565;28;20635;-86
2023/06/14 08:46:22;;;;;;;4.07;2.80;;;18.90;99.90;;;;;;5075954;28;20179;-86
2023/06/14 08:48:52;;;;;;;3.55;2.58;;;19.00;99.90;;;;;;5094578;28;20214;-87
2023/06/14 08:51:22;;;;;;;6.97;3.03;;;19.00;99.90;;;;;;5076006;28;20241;-85
2023/06/14 08:53:57;;;;;;;4.68;2.17;;;19.20;99.90;;;;;;5073823;28;20246;-86
2023/06/14 08:56:27;;;;;;;4.10;2.70;;;19.50;99.90;;;;;;5073275;28;20179;-86
2023/06/14 08:58:54;;;;;;;3.13;2.58;;;19.70;99.90;;;;;;5056537;28;20186;-87
2023/06/14 09:01:21;;;;;;;5.38;2.88;;;19.90;99.90;;;;;;5073555;28;20202;-87
2023/06/14 09:03:48;;;;;;;5.80;2.67;;;20.20;99.90;;;;;;5056922;28;20179;-87
2023/06/14 09:06:15;;;;;;;5.72;2.70;;;20.50;99.90;;;;;;5075028;28;20179;-88
2023/06/14 09:08:46;;;;;;;4.78;2.20;;;20.50;99.90;;;;;;5075600;28;20710;-89
2023/06/14 09:11:12;;;;;;;3.78;2.72;;;20.30;99.90;;;;;;5077251;28;20183;-86
2023/06/14 09:13:39;;;;;;;4.35;2.65;;;20.20;99.90;;;;;;5057147;28;20208;-85
2023/06/14 09:16:05;;;;;;;5.72;2.20;;;19.90;99.90;;;;;;5068735;28;20183;-84
2023/06/14 09:18:47;;;;;;;5.00;2.28;;;19.70;99.90;;;;;;5086775;28;20179;-85
2023/06/14 09:21:14;;;;;;;2.53;2.33;;;19.60;99.90;;;;;;5085711;28;20167;-86
2023/06/14 09:23:47;;;;;;;2.50;2.25;;;19.50;99.90;;;;;;5087020;28;20175;-85
2023/06/14 09:26:19;;;;;;;5.35;2.10;;;19.30;99.90;;;;;;5062330;28;20640;-85
2023/06/14 09:28:50;;;;;;;3.45;2.33;;;19.10;99.90;;;;;;5091681;28;20239;-85
2023/06/14 09:31:20;;;;;;;5.47;2.33;;;19.10;99.90;;;;;;5094088;28;20277;-85
2023/06/14 09:33:50;;;;;;;5.25;2.70;;;18.90;99.90;;;;;;5076693;28;20170;-85
2023/06/14 09:36:22;;;;;;;3.25;2.45;;;19.00;99.90;;;;;;5076646;28;20214;-85
2023/06/14 09:38:58;;;;;;;4.70;2.78;;;18.80;99.90;;;;;;5094907;28;20183;-86
2023/06/14 09:41:35;;;;;;;3.03;2.20;;;18.70;99.90;;;;;;5077405;28;20181;-86
2023/06/14 09:44:02;;;;;;;4.55;3.08;;;18.70;99.90;;;;;;5096087;28;20227;-86
2023/06/14 09:46:29;;;;;;;2.60;2.40;;;18.70;99.90;;;;;;5095654;28;20187;-87
2023/06/14 09:48:55;;;;;;;3.92;2.40;;;18.70;99.90;;;;;;5095061;28;20201;-87
2023/06/14 09:51:23;;;;;;;3.50;2.67;;;18.70;99.90;;;;;;5093770;28;20634;-88
2023/06/14 09:53:49;;;;;;;7.55;2.75;;;18.70;99.90;;;;;;5097047;28;20170;-87
2023/06/14 09:56:29;;;;;;;2.47;2.17;;;18.70;99.90;;;;;;5097943;28;20232;-86
2023/06/14 09:58:56;;;;;;;4.18;2.72;;;18.70;99.90;;;;;;5093640;28;20650;-86
2023/06/14 10:01:27;;;;;;;7.10;3.03;;;18.70;99.90;;;;;;5075589;28;20182;-87
2023/06/14 10:04:03;;;;;;;3.42;2.45;;;18.60;99.90;;;;;;5094084;28;20163;-87
2023/06/14 10:06:30;;;;;;;4.53;2.88;;;18.70;99.90;;;;;;5075382;28;20546;-87
2023/06/14 10:09:00;;;;;;;3.13;2.30;;;18.60;99.90;;;;;;5075561;28;20206;-86
2023/06/14 10:11:27;;;;;;;2.92;2.63;;;18.60;99.90;;;;;;5093821;28;20182;-87
2023/06/14 10:13:54;;;;;;;3.60;3.13;;;18.50;99.90;;;;;;5093677;28;20171;-86
2023/06/14 10:16:23;;;;;;;4.25;3.20;;;18.40;99.90;;;;;;5093586;28;20189;-86
2023/06/14 10:19:04;;;;;;;4.25;2.60;;;18.40;99.90;;;;;;5093845;28;20174;-86
2023/06/14 10:21:56;;;;;;;2.78;2.47;;;18.30;99.90;;;;;;5093448;28;20166;-86
2023/06/14 10:24:37;;;;;;;5.35;2.85;;;18.20;99.90;;;;;;5093380;28;20250;-85
2023/06/14 10:27:03;;;;;;;2.60;2.40;;;18.10;99.90;;;;;;5093144;28;20232;-85
2023/06/14 10:29:32;;;;;;;5.75;2.85;;;18.00;99.90;;;;;;5092722;28;20237;-86
2023/06/14 10:32:00;;;;;;;8.32;2.97;;;18.00;99.90;;;;;;5093207;28;20193;-87
2023/06/14 10:34:26;;;;;;;4.30;2.60;;;18.00;99.90;;;;;;5093257;28;20178;-85
2023/06/14 10:37:02;;;;;;;4.32;3.17;;;17.90;99.90;;;;;;5093581;28;20185;-85
2023/06/14 10:39:28;;;;;;;4.53;3.53;;;18.00;99.90;;;;;;5096925;28;20216;-86
2023/06/14 10:41:55;;;;;;;3.72;2.63;;;17.90;99.90;;;;;;5097826;28;20178;-84
2023/06/14 10:44:21;;;;;;;17.90;8.88;;;17.90;99.90;;;;;;5097241;28;20182;-85
2023/06/14 10:46:48;;;;;;;8.48;4.07;;;18.00;99.90;;;;;;5097161;28;20174;-85
2023/06/14 10:49:19;;;;;;;5.25;3.05;;;18.10;99.90;;;;;;5097434;28;20220;-85
2023/06/14 10:51:50;;;;;;;3.58;2.85;;;18.10;99.90;;;;;;5097170;28;20170;-85
2023/06/14 10:54:22;;;;;;;4.20;3.10;;;18.10;99.90;;;;;;5097168;28;20179;-84
2023/06/14 10:56:52;;;;;;;7.32;3.13;;;18.20;99.90;;;;;;5096860;28;20182;-85
2023/06/14 10:59:19;;;;;;;4.93;3.38;;;18.30;99.90;;;;;;5096797;28;20187;-86
2023/06/14 11:02:16;;;;;;;5.75;3.10;;;18.30;99.90;;;;;;5079060;28;20174;-87
2023/06/14 11:04:44;;;;;;;3.92;2.42;;;18.40;99.90;;;;;;5096672;28;20552;-86
2023/06/14 11:07:46;;;;;;;5.57;3.00;;;18.40;99.90;;;;;;5097387;28;20230;-85
2023/06/14 11:10:37;;;;;;;5.65;2.55;;;18.40;99.90;;;;;;5096649;28;20244;-86
2023/06/14 11:13:03;;;;;;;4.50;3.00;;;18.30;99.90;;;;;;5079524;28;20221;-85
2023/06/14 11:15:33;;;;;;;3.90;2.50;;;18.20;99.90;;;;;;5096252;28;20170;-86
2023/06/14 11:18:09;;;;;;;4.82;2.67;;;18.10;99.90;;;;;;5096790;28;20198;-85
2023/06/14 11:20:36;;;;;;;3.38;2.85;;;18.10;99.90;;;;;;5096522;28;20185;-85
2023/06/14 11:23:02;;;;;;;3.83;2.70;;;18.00;99.90;;;;;;5078681;28;20186;-87
2023/06/14 11:25:28;;;;;;;5.32;2.88;;;17.90;99.90;;;;;;5096651;28;20190;-87
2023/06/14 11:27:58;;;;;;;3.85;2.95;;;17.80;99.90;;;;;;5096371;28;20170;-86
2023/06/14 11:30:25;;;;;;;4.25;2.60;;;17.80;99.90;;;;;;5095996;28;20218;-86
2023/06/14 11:32:52;;;;;;;4.78;3.20;;;17.70;99.90;;;;;;5096416;28;20198;-86
2023/06/14 11:35:19;;;;;;;3.55;2.78;;;17.60;99.90;;;;;;5096467;28;20175;-86
2023/06/14 11:37:45;;;;;;;8.95;3.78;;;17.50;99.90;;;;;;5096062;28;20166;-85
2023/06/14 11:40:12;;;;;;;3.65;3.17;;;17.40;99.90;;;;;;5073913;28;20205;-87
2023/06/14 11:42:39;;;;;;;4.68;3.25;;;17.40;99.90;;;;;;5080130;28;20191;-84
2023/06/14 11:45:09;;;;;;;5.40;3.78;;;17.30;99.90;;;;;;5080910;28;20244;-85
2023/06/14 11:47:36;;;;;;;6.28;4.00;;;17.20;99.90;;;;;;5081190;28;20186;-85
2023/06/14 11:50:03;;;;;;;6.95;3.95;;;17.10;99.90;;;;;;5084730;28;20222;-85
2023/06/14 11:52:30;;;;;;;4.55;3.58;;;16.90;99.90;;;;;;5081699;28;20750;-85
2023/06/14 11:54:57;;;;;;;5.05;3.50;;;16.70;99.90;;;;;;5087267;28;20175;-86
2023/06/14 11:57:23;;;;;;;5.13;3.40;;;16.60;99.90;;;;;;5067344;28;20627;-86
2023/06/14 11:59:49;;;;;;;5.15;3.63;;;16.50;99.90;;;;;;5067945;28;20251;-85
2023/06/14 12:02:19;;;;;;;7.72;3.30;;;16.40;99.90;;;;;;5083599;28;20639;-87
2023/06/14 12:04:50;;;;;;;4.50;3.45;;;16.40;99.90;;;;;;5080760;28;20189;-87
2023/06/14 12:07:20;;;;;;;5.88;3.63;;;16.30;99.90;;;;;;5043507;28;20598;-87
2023/06/14 12:09:54;;;;;;;5.82;3.58;;;16.20;99.90;;;;;;5065056;28;20244;-87
2023/06/14 12:12:27;;;;;;;5.05;3.47;;;16.20;99.90;;;;;;5070117;28;20178;-87
2023/06/14 12:14:56;;;;;;;8.50;4.38;;;16.20;99.90;;;;;;5080833;28;20178;-88
2023/06/14 12:17:22;;;;;;;6.65;3.97;;;16.10;99.90;;;;;;5085301;28;20209;-86
2023/06/14 12:19:49;;;;;;;8.23;4.10;;;16.10;99.90;;;;;;5068387;28;20190;-86
2023/06/14 12:22:16;;;;;;;5.80;4.22;;;16.20;99.90;;;;;;5081953;28;20215;-86
2023/06/14 12:24:46;;;;;;;6.03;3.80;;;16.20;99.90;;;;;;5070590;28;20191;-88
2023/06/14 12:27:15;;;;;;;5.25;3.75;;;16.20;99.90;;;;;;5074459;28;20713;-87
2023/06/14 12:29:44;;;;;;;6.03;4.63;;;16.30;99.90;;;;;;5073461;28;20723;-87
2023/06/14 12:32:10;;;;;;;9.40;4.70;;;16.20;99.90;;;;;;5075067;28;20194;-87
2023/06/14 12:34:37;;;;;;;8.45;4.13;;;16.20;99.90;;;;;;5073471;28;20179;-86
2023/06/14 12:37:06;;;;;;;9.30;4.50;;;16.20;99.90;;;;;;5065738;28;20187;-86
2023/06/14 12:39:32;;;;;;;6.32;4.88;;;16.20;99.90;;;;;;5045959;28;20202;-87
2023/06/14 12:41:59;;;;;;;7.47;4.63;;;16.00;99.90;;;;;;5066889;28;20553;-87
2023/06/14 12:44:24;;;;;;;6.20;4.38;;;15.90;99.90;;;;;;5076035;28;20660;-87
2023/06/14 12:46:53;;;;;;;9.30;3.90;;;15.90;99.90;;;;;;5083844;28;20186;-86